TimeCST,TemperatureF,Dew PointF,Humidity,Sea Level PressureIn,VisibilityMPH,Wind Direction,Wind SpeedMPH,Gust SpeedMPH,PrecipitationIn,Events,Conditions,WindDirDegrees,DateUTC
12:15 AM,60.8,37.4,42,29.76,10.0,SW,10.4,-,N/A,,Clear,220,2012-11-10 06:15:00
12:35 AM,59.0,37.4,45,29.76,10.0,SSW,12.7,-,N/A,,Clear,200,2012-11-10 06:35:00
12:55 AM,60.8,37.4,42,29.76,10.0,SSW,13.8,-,N/A,,Clear,200,2012-11-10 06:55:00
1:15 AM,60.8,37.4,42,29.77,10.0,SSW,16.1,23.0,N/A,,Clear,200,2012-11-10 07:15:00
1:35 AM,62.6,39.2,42,29.77,10.0,SSW,17.3,23.0,N/A,,Clear,210,2012-11-10 07:35:00
1:55 AM,60.8,39.2,45,29.76,10.0,SSW,13.8,-,N/A,,Clear,210,2012-11-10 07:55:00
2:15 AM,60.8,39.2,45,29.76,10.0,SSW,12.7,-,N/A,,Clear,210,2012-11-10 08:15:00
2:35 AM,60.8,41.0,48,29.76,10.0,SSW,17.3,21.9,N/A,,Clear,210,2012-11-10 08:35:00
2:55 AM,62.6,41.0,45,29.76,10.0,SSW,19.6,27.6,N/A,,Clear,200,2012-11-10 08:55:00
3:15 AM,62.6,42.8,48,29.76,10.0,SSW,16.1,-,N/A,,Clear,200,2012-11-10 09:15:00
3:35 AM,62.6,42.8,48,29.75,10.0,SSW,12.7,-,N/A,,Clear,200,2012-11-10 09:35:00
3:55 AM,60.8,42.8,52,29.74,10.0,SSW,12.7,-,N/A,,Clear,200,2012-11-10 09:55:00
4:15 AM,62.6,44.6,52,29.75,10.0,SSW,16.1,-,N/A,,Clear,210,2012-11-10 10:15:00
4:35 AM,62.6,48.2,59,29.74,10.0,SSW,25.3,32.2,N/A,,Clear,210,2012-11-10 10:35:00
4:55 AM,62.6,50.0,63,29.72,10.0,SSW,19.6,27.6,N/A,,Clear,210,2012-11-10 10:55:00
5:15 AM,62.6,50.0,63,29.71,10.0,SSW,17.3,-,N/A,,Scattered Clouds,200,2012-11-10 11:15:00
5:35 AM,62.6,50.0,63,29.71,10.0,South,21.9,28.8,N/A,,Scattered Clouds,190,2012-11-10 11:35:00
6:15 AM,62.6,51.8,68,29.70,10.0,South,21.9,28.8,N/A,,Clear,190,2012-11-10 12:15:00
6:35 AM,62.6,51.8,68,29.71,10.0,South,20.7,25.3,N/A,,Clear,190,2012-11-10 12:35:00
6:55 AM,60.8,53.6,77,29.70,10.0,South,17.3,-,N/A,,Clear,180,2012-11-10 12:55:00
7:15 AM,60.8,51.8,72,29.71,10.0,South,17.3,21.9,N/A,,Clear,170,2012-11-10 13:15:00
7:35 AM,60.8,51.8,72,29.72,10.0,South,17.3,23.0,N/A,,Clear,180,2012-11-10 13:35:00
7:55 AM,60.8,51.8,72,29.71,10.0,South,16.1,-,N/A,,Clear,180,2012-11-10 13:55:00
8:15 AM,60.8,51.8,72,29.72,10.0,South,17.3,-,N/A,,Clear,170,2012-11-10 14:15:00
8:35 AM,62.6,51.8,68,29.72,10.0,South,19.6,27.6,N/A,,Clear,180,2012-11-10 14:35:00
8:55 AM,64.4,51.8,64,29.72,10.0,South,20.7,27.6,N/A,,Clear,180,2012-11-10 14:55:00
9:35 AM,68.0,51.8,56,29.70,10.0,SSW,21.9,27.6,N/A,,Clear,200,2012-11-10 15:35:00
9:55 AM,69.8,50.0,49,29.69,10.0,South,20.7,26.5,N/A,,Clear,190,2012-11-10 15:55:00
10:15 AM,71.6,48.2,43,29.68,10.0,South,21.9,31.1,N/A,,Clear,190,2012-11-10 16:15:00
10:35 AM,71.6,46.4,41,29.67,10.0,South,27.6,33.4,N/A,,Clear,190,2012-11-10 16:35:00
10:55 AM,73.4,46.4,38,29.66,10.0,South,24.2,38.0,N/A,,Clear,190,2012-11-10 16:55:00
11:15 AM,73.4,44.6,36,29.65,10.0,SSW,29.9,38.0,N/A,,Clear,200,2012-11-10 17:15:00
11:35 AM,78.8,41.0,26,29.64,10.0,SSW,36.8,42.6,N/A,,Clear,200,2012-11-10 17:35:00
11:55 AM,78.8,41.0,26,29.63,7.0,SSW,34.5,47.2,N/A,,Clear,200,2012-11-10 17:55:00
12:15 PM,78.8,39.2,24,29.62,7.0,SSW,42.6,51.8,N/A,,Clear,210,2012-11-10 18:15:00
12:35 PM,78.8,39.2,24,29.61,5.0,SSW,38.0,52.9,N/A,,Clear,210,2012-11-10 18:35:00
12:55 PM,80.6,41.0,24,29.61,7.0,SSW,39.1,50.6,N/A,,Clear,210,2012-11-10 18:55:00
1:15 PM,80.6,39.2,23,29.60,7.0,SSW,39.1,51.8,N/A,,Clear,200,2012-11-10 19:15:00
1:35 PM,78.8,33.8,20,29.60,5.0,SSW,38.0,54.1,N/A,,Clear,210,2012-11-10 19:35:00
1:55 PM,78.8,35.6,21,29.60,7.0,SW,39.1,48.3,N/A,,Clear,220,2012-11-10 19:55:00
2:15 PM,78.8,35.6,21,29.58,10.0,SW,34.5,46.0,N/A,,Clear,220,2012-11-10 20:15:00
2:35 PM,80.6,35.6,20,29.57,7.0,SSW,32.2,47.2,N/A,,Scattered Clouds,200,2012-11-10 20:35:00
2:55 PM,80.6,37.4,21,29.56,10.0,SSW,35.7,47.2,N/A,,Clear,200,2012-11-10 20:55:00
3:15 PM,78.8,39.2,24,29.56,10.0,South,32.2,46.0,N/A,,Scattered Clouds,190,2012-11-10 21:15:00
3:35 PM,78.8,35.6,21,29.56,7.0,SSW,33.4,46.0,N/A,,Scattered Clouds,200,2012-11-10 21:35:00
3:55 PM,78.8,37.4,23,29.56,10.0,SSW,28.8,44.9,N/A,,Scattered Clouds,200,2012-11-10 21:55:00
4:15 PM,78.8,35.6,21,29.56,10.0,SSW,34.5,48.3,N/A,,Scattered Clouds,200,2012-11-10 22:15:00
4:35 PM,77.0,35.6,22,29.57,7.0,SSW,31.1,43.7,N/A,,Scattered Clouds,200,2012-11-10 22:35:00
4:55 PM,77.0,32.0,19,29.57,7.0,SSW,24.2,34.5,N/A,,Overcast,210,2012-11-10 22:55:00
5:15 PM,77.0,32.0,19,29.57,5.0,SSW,23.0,35.7,N/A,,Overcast,210,2012-11-10 23:15:00
5:35 PM,77.0,33.8,21,29.57,7.0,SSW,21.9,32.2,N/A,,Overcast,200,2012-11-10 23:35:00
5:55 PM,68.0,44.6,43,29.59,7.0,SW,21.9,35.7,N/A,,Overcast,220,2012-11-10 23:55:00
6:15 PM,69.8,39.2,33,29.60,7.0,WSW,16.1,21.9,N/A,,Overcast,240,2012-11-11 00:15:00
6:35 PM,69.8,33.8,27,29.63,7.0,West,20.7,31.1,N/A,,Mostly Cloudy,260,2012-11-11 00:35:00
7:15 PM,68.0,33.8,28,29.64,10.0,WSW,18.4,27.6,N/A,,Mostly Cloudy,240,2012-11-11 01:15:00
7:35 PM,68.0,33.8,28,29.63,10.0,WSW,13.8,-,N/A,,Scattered Clouds,250,2012-11-11 01:35:00
7:55 PM,68.0,33.8,28,29.62,10.0,West,16.1,20.7,N/A,,Scattered Clouds,260,2012-11-11 01:55:00
8:15 PM,64.4,33.8,32,29.64,10.0,West,15.0,-,N/A,,Scattered Clouds,270,2012-11-11 02:15:00
8:35 PM,62.6,33.8,34,29.63,10.0,West,16.1,-,N/A,,Clear,270,2012-11-11 02:35:00
8:55 PM,62.6,32.0,32,29.68,10.0,WSW,13.8,-,N/A,,Scattered Clouds,240,2012-11-11 02:55:00
9:15 PM,60.8,32.0,34,29.68,10.0,West,15.0,-,N/A,,Scattered Clouds,260,2012-11-11 03:15:00
9:35 PM,60.8,32.0,34,29.68,10.0,West,15.0,21.9,N/A,,Scattered Clouds,280,2012-11-11 03:35:00
9:55 PM,59.0,30.2,34,29.71,10.0,West,10.4,-,N/A,,Clear,260,2012-11-11 03:55:00
10:15 PM,59.0,28.4,31,29.72,10.0,WSW,10.4,-,N/A,,Scattered Clouds,250,2012-11-11 04:15:00
10:35 PM,59.0,28.4,31,29.74,10.0,WSW,8.1,-,N/A,,Scattered Clouds,250,2012-11-11 04:35:00
10:55 PM,57.2,28.4,33,29.76,10.0,West,13.8,-,N/A,,Mostly Cloudy,280,2012-11-11 04:55:00
11:15 PM,53.6,23.0,30,29.78,10.0,NW,12.7,-,N/A,,Overcast,320,2012-11-11 05:15:00
11:35 PM,53.6,21.2,28,29.79,10.0,NW,10.4,-,N/A,,Overcast,320,2012-11-11 05:35:00
11:55 PM,53.6,19.4,26,29.78,10.0,NW,10.4,-,N/A,,Overcast,320,2012-11-11 05:55:00